Time;durP1;ratioP1;P1;durP2;ratioP2;P2;SDS_P1;SDS_P2;PMS_P1;PMS_P2;Temp;Humidity;BMP_temperature;BMP_pressure;BME280_temperature;BME280_humidity;BME280_pressure;Samples;Min_cycle;Max_cycle;Signal;HPM_P1;HPM_P2
2021/04/08 00:00:47;;;;;;;6.08;2.83;;;;;;;1.31;71.90;98468.95;306736;114;2723101;-71
2021/04/08 00:01:53;;;;;;;4.73;2.58;;;;;;;1.34;71.92;98481.08;319850;114;1962379;-70
2021/04/08 00:02:58;;;;;;;6.11;2.96;;;;;;;1.34;71.49;98481.90;345485;114;1961965;-70
2021/04/08 00:04:04;;;;;;;7.67;3.30;;;;;;;1.34;71.33;98468.59;345756;114;1961951;-70
2021/04/08 00:05:11;;;;;;;7.75;2.76;;;;;;;1.39;71.37;98468.89;347262;115;1961961;-70
2021/04/08 00:06:17;;;;;;;6.53;2.49;;;;;;;1.37;71.59;98478.88;345262;116;1963050;-72
2021/04/08 00:07:22;;;;;;;6.06;2.68;;;;;;;1.33;71.69;98490.08;347203;114;1961921;-70
2021/04/08 00:08:28;;;;;;;6.49;2.81;;;;;;;1.35;71.07;98474.73;346439;116;1961095;-71
2021/04/08 00:09:33;;;;;;;5.55;2.94;;;;;;;1.38;71.36;98475.23;344932;116;1960863;-71
2021/04/08 00:10:43;;;;;;;7.29;2.97;;;;;;;1.32;71.17;98467.94;346066;116;1960708;-72
2021/04/08 00:11:48;;;;;;;5.91;2.58;;;;;;;1.29;71.12;98478.94;346442;116;1960959;-70
2021/04/08 00:12:56;;;;;;;5.87;2.56;;;;;;;1.39;70.69;98484.04;347105;114;1962955;-71
2021/04/08 00:14:02;;;;;;;6.66;3.70;;;;;;;1.34;70.87;98473.09;344970;114;1962009;-71
2021/04/08 00:15:12;;;;;;;6.22;2.84;;;;;;;1.39;70.72;98474.22;344691;116;1963019;-71
2021/04/08 00:16:19;;;;;;;5.16;2.42;;;;;;;1.29;70.91;98490.40;317637;116;2505019;-70
2021/04/08 00:17:25;;;;;;;6.53;2.82;;;;;;;1.33;71.35;98495.39;314385;116;1969919;-70
2021/04/08 00:18:30;;;;;;;6.95;2.62;;;;;;;1.32;71.08;98481.23;334319;119;1962992;-71
2021/04/08 00:19:36;;;;;;;7.50;2.47;;;;;;;1.39;70.39;98479.54;345619;114;1962958;-71
2021/04/08 00:20:42;;;;;;;6.46;2.64;;;;;;;1.32;71.01;98486.56;346454;116;1961981;-71
2021/04/08 00:21:48;;;;;;;6.34;2.75;;;;;;;1.35;70.66;98478.25;345582;116;1961985;-71
2021/04/08 00:22:53;;;;;;;6.39;2.82;;;;;;;1.39;70.41;98484.86;322265;114;2415996;-71
2021/04/08 00:23:58;;;;;;;7.59;2.82;;;;;;;1.32;70.81;98491.87;319421;115;1961993;-71
2021/04/08 00:25:05;;;;;;;5.03;2.92;;;;;;;1.36;70.50;98505.68;345807;116;1961954;-71
2021/04/08 00:26:12;;;;;;;7.64;2.75;;;;;;;1.38;70.12;98499.18;345728;115;1963000;-71
2021/04/08 00:27:17;;;;;;;6.57;3.12;;;;;;;1.26;71.12;98505.89;327783;116;2304999;-70
2021/04/08 00:28:23;;;;;;;5.92;3.12;;;;;;;1.22;71.17;98496.62;318372;116;1960893;-72
2021/04/08 00:29:28;;;;;;;6.73;3.07;;;;;;;1.28;70.85;98496.73;335202;114;1962008;-72
2021/04/08 00:30:43;;;;;;;5.54;2.39;;;;;;;1.27;71.55;98488.91;345378;115;1961848;-71
2021/04/08 00:31:48;;;;;;;6.42;2.83;;;;;;;1.20;71.52;98498.63;338542;119;1961940;-71
2021/04/08 00:32:55;;;;;;;6.88;3.06;;;;;;;1.23;71.14;98506.25;339020;119;1962067;-72
2021/04/08 00:34:01;;;;;;;6.25;2.74;;;;;;;1.31;70.72;98503.54;302669;119;2697006;-72
2021/04/08 00:35:07;;;;;;;7.35;3.54;;;;;;;1.24;71.01;98499.91;322246;116;1962028;-71
2021/04/08 00:36:13;;;;;;;7.88;3.09;;;;;;;1.14;71.10;98501.95;347611;116;1961890;-71
2021/04/08 00:37:19;;;;;;;5.81;2.77;;;;;;;1.15;71.10;98504.45;346162;114;1963007;-72
2021/04/08 00:38:25;;;;;;;6.23;2.79;;;;;;;1.21;70.71;98503.75;307060;115;2887983;-72
2021/04/08 00:39:31;;;;;;;6.80;2.73;;;;;;;1.15;71.06;98519.59;318135;116;1962023;-71
2021/04/08 00:40:47;;;;;;;6.32;2.75;;;;;;;1.15;71.01;98525.73;345527;116;1963945;-71
2021/04/08 00:41:53;;;;;;;5.34;3.08;;;;;;;1.14;71.45;98509.94;340872;117;1961994;-72
2021/04/08 00:43:00;;;;;;;9.60;3.41;;;;;;;1.16;71.05;98526.55;340943;116;1961994;-71
2021/04/08 00:44:06;;;;;;;7.39;3.17;;;;;;;1.09;71.21;98515.80;340955;115;1962983;-72
2021/04/08 00:45:11;;;;;;;4.66;2.55;;;;;;;1.13;71.37;98526.91;346770;115;1962020;-71
2021/04/08 00:46:18;;;;;;;5.77;2.97;;;;;;;1.09;71.20;98527.27;344050;115;1962894;-71
2021/04/08 00:47:24;;;;;;;6.26;2.93;;;;;;;1.13;70.85;98511.77;303426;115;2773968;-71
2021/04/08 00:48:29;;;;;;;6.59;2.81;;;;;;;1.24;70.47;98510.55;329838;115;1963964;-71
2021/04/08 00:49:35;;;;;;;6.04;3.02;;;;;;;1.22;70.69;98520.56;340379;117;1961947;-71
2021/04/08 00:50:42;;;;;;;6.12;2.91;;;;;;;1.12;71.06;98519.94;340705;115;1961999;-71
2021/04/08 00:51:48;;;;;;;5.79;3.06;;;;;;;1.04;70.97;98516.31;306993;115;2694997;-71
2021/04/08 00:53:00;;;;;;;6.73;3.26;;;;;;;1.15;70.82;98519.59;330285;115;1961862;-71
2021/04/08 00:54:05;;;;;;;;;;;;;;;1.10;71.05;98528.08;347642;115;1962926;-71
2021/04/08 00:55:11;;;;;;;7.96;3.16;;;;;;;1.04;71.51;98536.77;345523;115;1960971;-70
2021/04/08 00:56:20;;;;;;;7.41;2.94;;;;;;;0.93;71.86;98523.82;345928;115;1962037;-71
2021/04/08 00:57:27;;;;;;;7.43;3.49;;;;;;;0.96;71.52;98519.01;345418;115;1961950;-71
2021/04/08 00:58:33;;;;;;;6.96;3.50;;;;;;;1.05;71.20;98525.11;328564;115;1962038;-71
2021/04/08 00:59:38;;;;;;;6.92;3.19;;;;;;;1.08;71.07;98538.06;345388;115;1962007;-71
2021/04/08 01:00:45;;;;;;;7.81;3.56;;;;;;;1.00;71.56;98522.14;337120;118;1964014;-71
2021/04/08 01:01:51;;;;;;;5.44;2.64;;;;;;;0.97;71.28;98531.29;314539;115;2540989;-71
2021/04/08 01:02:57;;;;;;;8.44;3.29;;;;;;;1.05;71.57;98541.06;337201;115;1965874;-71
2021/04/08 01:04:03;;;;;;;6.54;2.97;;;;;;;1.04;70.87;98531.45;345308;115;1962003;-71
2021/04/08 01:05:09;;;;;;;7.56;3.64;;;;;;;1.00;71.13;98532.78;345233;115;1961930;-71
2021/04/08 01:06:16;;;;;;;8.35;3.64;;;;;;;1.05;71.18;98536.57;339018;115;1961944;-71
2021/04/08 01:07:21;;;;;;;8.71;3.94;;;;;;;1.08;70.57;98535.39;344870;115;1962954;-71
2021/04/08 01:08:26;;;;;;;8.86;4.04;;;;;;;1.08;70.83;98535.39;345236;115;1962037;-71
2021/04/08 01:09:32;;;;;;;6.28;3.20;;;;;;;0.98;71.40;98538.28;344790;115;1961982;-71
2021/04/08 01:10:40;;;;;;;6.79;3.53;;;;;;;0.96;70.95;98539.45;312969;115;2594032;-71
2021/04/08 01:11:45;;;;;;;6.63;3.39;;;;;;;1.10;70.19;98547.52;344741;115;1962011;-71
2021/04/08 01:12:57;;;;;;;6.62;3.16;;;;;;;1.10;70.29;98539.55;345105;115;1962934;-71
2021/04/08 01:14:03;;;;;;;6.65;2.78;;;;;;;1.16;70.14;98545.17;343436;115;1961943;-72
2021/04/08 01:15:09;;;;;;;10.40;4.35;;;;;;;1.14;70.37;98555.16;322541;115;2388815;-72
2021/04/08 01:16:33;;;;;;;6.96;3.44;;;;;;;1.17;70.13;98539.70;345065;115;1962057;-70
2021/04/08 01:17:54;;;;;;;7.73;3.20;;;;;;;1.09;70.58;98548.53;321505;115;1962038;-71
2021/04/08 01:19:03;;;;;;;6.26;3.36;;;;;;;1.08;70.81;98552.17;345803;115;1970013;-71
2021/04/08 01:20:38;;;;;;;7.06;3.02;;;;;;;1.07;70.38;98549.70;344792;115;1962062;-71
2021/04/08 01:21:47;;;;;;;8.17;3.45;;;;;;;1.08;70.54;98546.86;344556;115;1962024;-71
2021/04/08 01:23:08;;;;;;;7.31;3.38;;;;;;;1.10;70.64;98552.02;334728;115;1961961;-71
2021/04/08 01:24:36;;;;;;;7.86;3.83;;;;;;;1.13;70.54;98558.83;343480;115;1962949;-70
2021/04/08 01:25:51;;;;;;;6.96;3.01;;;;;;;1.10;69.58;98558.16;313108;116;1965068;-71
2021/04/08 01:27:29;;;;;;;7.16;3.30;;;;;;;1.23;69.63;98552.29;321276;118;1963830;-71
2021/04/08 01:28:38;;;;;;;8.13;4.29;;;;;;;1.22;69.49;98557.80;300950;115;2868914;-71
2021/04/08 01:30:05;;;;;;;7.39;3.28;;;;;;;1.05;69.65;98554.36;345756;115;1963924;-72
2021/04/08 01:31:12;;;;;;;6.98;3.31;;;;;;;1.05;69.66;98555.19;344976;115;1961981;-72
2021/04/08 01:32:20;;;;;;;7.84;3.93;;;;;;;0.85;70.60;98562.75;345512;115;1962036;-72
2021/04/08 01:33:32;;;;;;;8.24;4.34;;;;;;;0.75;70.45;98558.63;345516;115;1961960;-71
2021/04/08 01:34:41;;;;;;;7.78;3.69;;;;;;;0.69;71.03;98569.92;345142;115;1961938;-71
2021/04/08 01:35:48;;;;;;;7.62;3.81;;;;;;;0.63;71.14;98566.12;345574;115;1970902;-71
2021/04/08 01:36:57;;;;;;;8.89;4.36;;;;;;;0.57;71.65;98564.97;345140;115;1962034;-72
2021/04/08 01:38:21;;;;;;;8.45;3.32;;;;;;;0.54;72.16;98565.31;322590;115;2399992;-72
2021/04/08 01:39:28;;;;;;;6.62;3.36;;;;;;;0.58;71.63;98566.65;306656;115;2576980;-71
2021/04/08 01:40:34;;;;;;;7.44;2.89;;;;;;;0.60;71.99;98569.94;344564;115;1961936;-71
2021/04/08 01:41:47;;;;;;;8.44;4.08;;;;;;;0.68;71.84;98574.41;346545;114;1961963;-71
2021/04/08 01:43:04;;;;;;;7.44;2.94;;;;;;;0.71;71.08;98573.25;337623;114;1962970;-71
2021/04/08 01:44:19;;;;;;;8.49;3.78;;;;;;;0.84;70.72;98568.23;335190;119;1964010;-71
2021/04/08 01:45:26;;;;;;;7.43;2.88;;;;;;;0.87;70.69;98575.86;344255;117;1963076;-71
2021/04/08 01:46:35;;;;;;;6.43;3.18;;;;;;;0.89;70.76;98579.18;352422;114;1960973;-72
2021/04/08 01:47:43;;;;;;;7.23;3.71;;;;;;;0.91;70.69;98571.88;316718;114;2007593;-70
2021/04/08 01:48:51;;;;;;;6.61;3.04;;;;;;;0.93;70.49;98584.97;352864;113;1962038;-72
2021/04/08 01:50:09;;;;;;;7.83;4.30;;;;;;;0.84;70.17;98595.63;318843;114;2600955;-71
2021/04/08 01:51:15;;;;;;;7.01;3.70;;;;;;;0.88;70.82;98583.67;303524;113;2169179;-70
2021/04/08 01:52:22;;;;;;;6.69;3.44;;;;;;;0.74;70.41;98556.95;352571;113;1962022;-71
2021/04/08 01:53:28;;;;;;;9.01;4.10;;;;;;;0.96;70.01;98588.14;347084;111;1960690;-71
2021/04/08 01:54:36;;;;;;;6.61;3.74;;;;;;;0.99;70.22;98587.80;303622;112;2132887;-72
2021/04/08 01:55:44;;;;;;;7.99;4.19;;;;;;;1.02;69.95;98597.27;359721;110;1963989;-71
2021/04/08 01:56:55;;;;;;;7.37;3.63;;;;;;;1.06;69.70;98583.45;359995;110;1961972;-72
2021/04/08 01:58:03;;;;;;;7.96;3.73;;;;;;;1.00;70.00;98605.40;359677;110;1965043;-71
2021/04/08 01:59:12;;;;;;;7.92;3.66;;;;;;;0.99;69.80;98593.11;359460;110;1961938;-71
2021/04/08 02:00:21;;;;;;;9.53;4.58;;;;;;;0.98;70.28;98593.27;359829;110;1961893;-71
2021/04/08 02:01:28;;;;;;;7.04;4.11;;;;;;;0.88;70.06;98602.28;325462;110;2601040;-71
2021/04/08 02:02:37;;;;;;;6.53;3.55;;;;;;;0.78;70.37;98611.45;360259;110;1961978;-71
2021/04/08 02:03:43;;;;;;;8.73;3.76;;;;;;;0.76;70.49;98597.49;360913;110;1962028;-71
2021/04/08 02:04:53;;;;;;;5.71;3.40;;;;;;;0.70;70.66;98603.49;319986;110;2721950;-72
2021/04/08 02:05:59;;;;;;;7.97;4.04;;;;;;;0.77;70.31;98605.31;359721;110;1963950;-71
2021/04/08 02:07:06;;;;;;;6.66;3.48;;;;;;;0.75;70.53;98606.48;318052;110;2742956;-71
2021/04/08 02:08:12;;;;;;;7.18;4.00;;;;;;;0.74;70.99;98596.82;359395;110;1964042;-71
2021/04/08 02:09:22;;;;;;;6.86;3.58;;;;;;;0.77;70.46;98617.78;360901;110;1962015;-70
2021/04/08 02:10:32;;;;;;;9.12;3.64;;;;;;;0.77;70.52;98605.31;339328;110;2368999;-71
2021/04/08 02:11:40;;;;;;;8.80;3.81;;;;;;;0.81;70.05;98633.20;360029;110;1970023;-71
2021/04/08 02:12:48;;;;;;;7.74;3.81;;;;;;;0.81;70.33;98611.93;358607;110;1962034;-71
2021/04/08 02:13:56;;;;;;;8.23;3.63;;;;;;;0.88;70.07;98606.78;317130;110;2760017;-71
2021/04/08 02:15:06;;;;;;;9.98;4.51;;;;;;;0.87;69.98;98611.27;357393;110;1961941;-70
2021/04/08 02:16:14;;;;;;;7.76;4.00;;;;;;;0.90;70.14;98623.40;360991;110;1961937;-71
2021/04/08 02:17:22;;;;;;;10.31;4.19;;;;;;;0.95;69.84;98626.34;359343;110;1962026;-70
2021/04/08 02:18:29;;;;;;;11.82;4.92;;;;;;;0.87;70.26;98626.37;316525;110;2240002;-70
2021/04/08 02:19:37;;;;;;;8.37;3.85;;;;;;;0.89;69.70;98621.72;358627;110;1962969;-70
2021/04/08 02:20:44;;;;;;;7.77;4.08;;;;;;;0.87;69.82;98631.69;318806;110;2131805;-71
2021/04/08 02:21:52;;;;;;;8.39;4.31;;;;;;;0.83;69.56;98638.36;359899;110;1961975;-71
2021/04/08 02:23:03;;;;;;;8.11;4.63;;;;;;;0.77;69.94;98631.89;361114;110;1962062;-71
2021/04/08 02:24:13;;;;;;;11.77;5.12;;;;;;;0.69;69.85;98636.37;359609;110;1965011;-71
2021/04/08 02:25:21;;;;;;;9.21;4.96;;;;;;;0.57;70.32;98639.38;360088;110;1963993;-71
2021/04/08 02:26:30;;;;;;;10.31;5.18;;;;;;;0.40;71.02;98635.08;359109;110;1961092;-71
2021/04/08 02:27:42;;;;;;;10.22;4.97;;;;;;;0.35;71.01;98640.06;339087;109;1960801;-71
2021/04/08 02:28:50;;;;;;;8.20;4.55;;;;;;;0.31;71.69;98636.06;361693;110;1960901;-72
2021/04/08 02:29:55;;;;;;;8.03;3.86;;;;;;;0.34;71.44;98644.52;361529;109;1960935;-71
2021/04/08 02:31:02;;;;;;;10.36;4.09;;;;;;;0.34;71.68;98633.06;360144;110;1961084;-71
2021/04/08 02:32:09;;;;;;;8.71;4.26;;;;;;;0.38;71.50;98647.69;327579;110;2931920;-71
2021/04/08 02:33:23;;;;;;;7.16;3.65;;;;;;;0.39;71.66;98638.72;361370;110;1961955;-71
2021/04/08 02:34:28;;;;;;;7.88;3.98;;;;;;;0.42;71.35;98639.23;354250;110;1962030;-71
2021/04/08 02:35:34;;;;;;;7.34;3.58;;;;;;;0.49;71.78;98651.84;360624;110;1961921;-71
2021/04/08 02:36:40;;;;;;;8.77;3.53;;;;;;;0.47;71.60;98638.71;359726;110;1962005;-71
2021/04/08 02:37:48;;;;;;;7.25;3.78;;;;;;;0.49;71.32;98639.38;360069;110;1963937;-71
2021/04/08 02:39:07;;;;;;;9.53;4.11;;;;;;;0.57;71.09;98647.34;360035;110;1963947;-71
2021/04/08 02:40:15;;;;;;;10.05;5.31;;;;;;;0.55;71.37;98649.33;347036;114;1961992;-71
2021/04/08 02:41:22;;;;;;;9.29;4.36;;;;;;;0.61;71.01;98664.63;321768;114;2425932;-71
2021/04/08 02:42:28;;;;;;;8.35;4.22;;;;;;;0.64;70.42;98658.98;345050;114;1961958;-71
2021/04/08 02:43:33;;;;;;;7.68;4.36;;;;;;;0.75;70.26;98656.98;345539;114;1962958;-72
2021/04/08 02:44:39;;;;;;;7.62;3.87;;;;;;;0.71;70.64;98647.67;351363;112;1961912;-72
2021/04/08 02:45:45;;;;;;;9.11;4.21;;;;;;;0.78;69.88;98649.48;311523;112;2906074;-72
2021/04/08 02:46:51;;;;;;;9.36;4.29;;;;;;;0.80;70.05;98663.45;352554;112;1962011;-71
2021/04/08 02:47:57;;;;;;;8.31;4.34;;;;;;;0.78;70.16;98660.13;354808;112;1962027;-72
2021/04/08 02:49:03;;;;;;;9.91;4.45;;;;;;;0.72;70.03;98652.83;353717;112;1965024;-72
2021/04/08 02:50:10;;;;;;;8.93;5.05;;;;;;;0.68;70.16;98663.95;326879;112;2453020;-71
2021/04/08 02:51:19;;;;;;;8.88;4.22;;;;;;;0.63;70.85;98657.30;355214;112;1960949;-71
2021/04/08 02:52:31;;;;;;;8.78;4.23;;;;;;;0.64;70.51;98660.81;334043;112;1961904;-71
2021/04/08 02:53:42;;;;;;;7.68;3.66;;;;;;;0.68;70.26;98670.09;352466;112;1962058;-71
2021/04/08 02:54:52;;;;;;;7.64;4.06;;;;;;;0.71;70.12;98663.61;340586;112;1962077;-71
2021/04/08 02:56:19;;;;;;;8.26;4.19;;;;;;;0.67;70.60;98673.77;323539;114;1963730;-71
2021/04/08 02:57:31;;;;;;;9.24;4.41;;;;;;;0.68;70.21;98677.24;347544;115;1964059;-70
2021/04/08 02:58:39;;;;;;;7.77;4.12;;;;;;;0.76;69.85;98678.06;347296;116;1963015;-71
2021/04/08 02:59:48;;;;;;;7.53;4.02;;;;;;;0.77;69.43;98670.94;348287;114;1963014;-71
2021/04/08 03:01:08;;;;;;;8.51;4.71;;;;;;;0.83;69.42;98678.23;349549;114;1962002;-71
2021/04/08 03:02:18;;;;;;;9.14;5.38;;;;;;;0.76;69.82;98683.37;348976;114;1961982;-71
2021/04/08 03:03:28;;;;;;;9.75;4.87;;;;;;;0.65;70.18;98676.57;348437;114;1962982;-71
2021/04/08 03:04:40;;;;;;;11.22;4.66;;;;;;;0.58;69.79;98680.06;348878;114;1960775;-71
2021/04/08 03:05:47;;;;;;;10.27;4.96;;;;;;;0.48;69.78;98677.59;341916;114;1961948;-72
2021/04/08 03:06:55;;;;;;;10.86;5.19;;;;;;;0.40;70.64;98690.87;331656;114;2881970;-72
2021/04/08 03:08:04;;;;;;;12.51;5.51;;;;;;;0.42;70.18;98691.52;349844;115;1962002;-72
2021/04/08 03:09:11;;;;;;;11.51;5.12;;;;;;;0.32;70.77;98696.15;325677;114;1962015;-71
2021/04/08 03:10:19;;;;;;;10.12;5.31;;;;;;;0.17;71.62;98688.84;308009;114;2083430;-71
2021/04/08 03:11:28;;;;;;;8.89;4.79;;;;;;;0.18;71.59;98695.80;349563;114;1961974;-72
2021/04/08 03:12:35;;;;;;;11.14;5.33;;;;;;;0.21;71.33;98710.58;329744;114;1961995;-72
2021/04/08 03:13:45;;;;;;;10.21;4.63;;;;;;;0.23;71.54;98697.97;349815;114;1960749;-71
2021/04/08 03:14:53;;;;;;;11.09;4.74;;;;;;;0.29;71.55;98693.82;349045;114;1961959;-72
2021/04/08 03:16:01;;;;;;;9.09;4.85;;;;;;;0.27;71.48;98706.46;348911;114;1963092;-71
2021/04/08 03:17:08;;;;;;;9.89;4.99;;;;;;;0.32;71.17;98715.59;327044;114;2226011;-71
2021/04/08 03:18:17;;;;;;;11.88;4.61;;;;;;;0.42;70.62;98707.45;350208;111;1962091;-70
2021/04/08 03:19:24;;;;;;;9.97;4.95;;;;;;;0.45;70.55;98725.75;359012;110;1964937;-71
2021/04/08 03:20:31;;;;;;;8.29;4.34;;;;;;;0.54;70.27;98731.89;360188;110;1962052;-71
2021/04/08 03:21:37;;;;;;;10.03;4.68;;;;;;;0.50;70.44;98703.97;356250;111;1962059;-71
2021/04/08 03:22:44;;;;;;;13.07;5.72;;;;;;;0.49;70.50;98703.16;357612;111;1961980;-70
2021/04/08 03:23:52;;;;;;;9.17;4.32;;;;;;;0.48;70.17;98705.95;352512;110;2895029;-70
2021/04/08 03:24:59;;;;;;;10.73;4.72;;;;;;;0.50;71.00;98703.97;360610;110;1964040;-71
2021/04/08 03:26:05;;;;;;;10.29;4.32;;;;;;;0.53;70.33;98714.27;308625;110;2236855;-71
2021/04/08 03:27:12;;;;;;;10.08;5.12;;;;;;;0.53;70.25;98704.49;360360;110;1961932;-71
2021/04/08 03:28:19;;;;;;;9.79;5.37;;;;;;;0.54;70.24;98715.95;359987;110;1961866;-70
2021/04/08 03:29:26;;;;;;;11.06;5.25;;;;;;;0.57;70.49;98713.78;358810;110;1962080;-71
2021/04/08 03:30:33;;;;;;;13.16;5.06;;;;;;;0.60;70.03;98712.63;360423;110;1962024;-71
2021/04/08 03:31:42;;;;;;;11.02;4.82;;;;;;;0.62;70.13;98726.58;343734;110;1961990;-71
2021/04/08 03:32:49;;;;;;;8.93;4.77;;;;;;;0.64;69.91;98711.30;343748;110;2241993;-70
2021/04/08 03:33:55;;;;;;;10.38;4.69;;;;;;;0.70;70.04;98715.95;360132;110;1963969;-71
2021/04/08 03:35:02;;;;;;;8.66;4.91;;;;;;;0.70;69.44;98723.92;359379;110;1963090;-71
2021/04/08 03:36:09;;;;;;;10.03;5.57;;;;;;;0.73;69.93;98714.78;330251;110;1965007;-71
2021/04/08 03:37:15;;;;;;;9.29;5.14;;;;;;;0.62;69.95;98726.58;360748;110;1964029;-72
2021/04/08 03:38:21;;;;;;;10.89;5.88;;;;;;;0.64;69.87;98727.25;332554;110;2524965;-71
2021/04/08 03:39:27;;;;;;;12.63;6.32;;;;;;;0.55;69.61;98734.37;354921;110;1962943;-71
2021/04/08 03:40:36;;;;;;;11.83;6.37;;;;;;;0.50;69.74;98738.52;360500;110;1962997;-71
2021/04/08 03:41:43;;;;;;;10.75;6.53;;;;;;;0.36;70.47;98742.66;360297;110;1962005;-71
2021/04/08 03:43:00;;;;;;;11.18;6.52;;;;;;;0.29;70.68;98731.87;320114;112;2912970;-71
2021/04/08 03:44:16;;;;;;;12.11;5.99;;;;;;;0.23;70.33;98742.30;359062;110;1961863;-71
2021/04/08 03:45:22;;;;;;;10.17;5.44;;;;;;;0.21;70.57;98734.48;351823;113;1962021;-70
2021/04/08 03:46:27;;;;;;;10.72;5.26;;;;;;;0.27;70.42;98730.37;358219;111;1961171;-71
2021/04/08 03:47:33;;;;;;;10.12;5.71;;;;;;;0.27;70.72;98752.44;313421;111;2812027;-71
2021/04/08 03:48:40;;;;;;;10.61;5.08;;;;;;;0.30;70.61;98738.00;354058;111;1961960;-71
2021/04/08 03:49:50;;;;;;;9.44;4.94;;;;;;;0.36;71.23;98737.34;349194;114;1963950;-71
2021/04/08 03:50:56;;;;;;;8.70;4.72;;;;;;;0.40;70.85;98744.00;356012;112;1961922;-72
2021/04/08 03:52:05;;;;;;;11.61;6.01;;;;;;;0.44;70.58;98748.80;320180;112;2222015;-72
2021/04/08 03:53:13;;;;;;;9.46;5.01;;;;;;;0.48;70.61;98740.50;354815;112;1962955;-71
2021/04/08 03:54:20;;;;;;;7.92;4.50;;;;;;;0.51;70.94;98743.68;354456;112;1964014;-71
2021/04/08 03:55:28;;;;;;;8.98;5.25;;;;;;;0.59;70.01;98758.80;315994;112;2744031;-71
2021/04/08 03:56:50;;;;;;;9.33;4.74;;;;;;;0.65;69.72;98756.30;355987;112;1961932;-71
2021/04/08 03:57:57;;;;;;;9.73;5.05;;;;;;;0.72;69.53;98758.33;317132;112;2732062;-72
2021/04/08 03:59:05;;;;;;;12.19;6.26;;;;;;;0.76;69.54;98752.48;356453;112;1961899;-71
2021/04/08 04:00:13;;;;;;;11.01;6.34;;;;;;;0.72;70.09;98755.67;330493;112;1962946;-72
2021/04/08 04:01:19;;;;;;;9.37;5.20;;;;;;;0.70;69.58;98752.34;355568;114;1961996;-70
2021/04/08 04:02:25;;;;;;;9.54;5.21;;;;;;;0.63;69.66;98749.48;340245;114;1963922;-71
2021/04/08 04:03:30;;;;;;;11.76;6.56;;;;;;;0.59;70.06;98748.17;356555;112;1962946;-71
2021/04/08 04:04:38;;;;;;;11.29;5.83;;;;;;;0.57;70.09;98755.47;355800;112;1964988;-71
2021/04/08 04:05:44;;;;;;;11.05;5.66;;;;;;;0.56;69.62;98746.67;329846;112;1961984;-72
2021/04/08 04:06:53;;;;;;;10.96;6.01;;;;;;;0.52;69.83;98761.27;354557;112;1962014;-71
2021/04/08 04:07:58;;;;;;;12.65;6.71;;;;;;;0.49;70.51;98752.81;354780;114;1964916;-71
2021/04/08 04:09:05;;;;;;;11.82;6.79;;;;;;;0.53;70.15;98754.12;355248;112;1963008;-71
2021/04/08 04:10:12;;;;;;;11.01;6.54;;;;;;;0.53;69.78;98760.30;337237;112;1961987;-72
2021/04/08 04:11:17;;;;;;;11.16;6.60;;;;;;;0.50;70.48;98765.09;355929;112;1961876;-71
2021/04/08 04:12:23;;;;;;;12.99;6.47;;;;;;;0.52;70.07;98766.59;355150;112;1961977;-71
2021/04/08 04:13:30;;;;;;;10.51;5.46;;;;;;;0.57;70.14;98772.24;355491;112;1961987;-71
2021/04/08 04:14:37;;;;;;;11.19;5.91;;;;;;;0.59;69.30;98772.92;316670;112;2054911;-71
2021/04/08 04:15:46;;;;;;;9.58;5.68;;;;;;;0.62;69.79;98777.08;355537;112;1961987;-71
2021/04/08 04:16:54;;;;;;;9.77;5.79;;;;;;;0.68;69.53;98764.95;355019;112;1961961;-71
2021/04/08 04:18:05;;;;;;;10.95;6.82;;;;;;;0.04;69.16;98666.41;356722;112;1962046;-71
2021/04/08 04:19:10;;;;;;;14.57;7.72;;;;;;;0.69;69.69;98761.28;355992;112;1961963;-71
2021/04/08 04:20:17;;;;;;;13.66;7.54;;;;;;;0.64;70.28;98765.28;356170;112;1964037;-71
2021/04/08 04:21:23;;;;;;;12.13;6.56;;;;;;;0.62;69.89;98774.42;340390;112;2260883;-71
2021/04/08 04:22:28;;;;;;;11.74;6.98;;;;;;;0.54;70.35;98775.23;357238;112;1961842;-71
2021/04/08 04:23:34;;;;;;;11.36;6.67;;;;;;;0.53;69.83;98776.23;355679;112;1961972;-71
2021/04/08 04:24:39;;;;;;;12.82;7.38;;;;;;;0.52;70.21;98769.25;355599;112;1964924;-71
2021/04/08 04:25:45;;;;;;;11.28;6.52;;;;;;;0.54;70.96;98774.41;356821;112;1963033;-71
2021/04/08 04:26:50;;;;;;;11.90;6.59;;;;;;;0.56;69.75;98780.39;299356;112;2231275;-71
2021/04/08 04:27:56;;;;;;;10.74;6.08;;;;;;;0.59;69.73;98783.55;327566;112;1962039;-71
2021/04/08 04:29:02;;;;;;;13.39;7.02;;;;;;;0.66;69.82;98783.70;356016;114;1964014;-71
2021/04/08 04:30:09;;;;;;;13.52;7.79;;;;;;;0.71;69.35;98784.05;354428;112;1962992;-72
2021/04/08 04:31:15;;;;;;;12.40;7.68;;;;;;;0.73;69.25;98773.27;350099;111;1961951;-71
2021/04/08 04:32:20;;;;;;;14.53;7.81;;;;;;;0.66;69.31;98783.70;344905;117;1961982;-72
2021/04/08 04:33:25;;;;;;;12.79;7.48;;;;;;;0.70;69.48;98790.38;352884;109;1961998;-71
2021/04/08 04:34:31;;;;;;;12.71;6.99;;;;;;;0.71;69.10;98792.02;355194;112;1961941;-73
2021/04/08 04:35:37;;;;;;;15.18;7.52;;;;;;;0.70;68.37;98793.03;317577;112;2698020;-73
2021/04/08 04:36:42;;;;;;;15.03;8.44;;;;;;;0.70;69.04;98789.55;352854;112;1961989;-72
2021/04/08 04:37:48;;;;;;;17.17;8.18;;;;;;;0.71;69.50;98794.68;352959;112;1960723;-73
2021/04/08 04:38:54;;;;;;;12.46;7.95;;;;;;;0.74;69.07;98793.52;353806;112;1960720;-72
2021/04/08 04:39:59;;;;;;;13.47;8.43;;;;;;;0.74;68.78;98805.01;330807;112;2454945;-72
2021/04/08 04:41:05;;;;;;;16.23;9.17;;;;;;;0.74;69.61;98802.35;326241;112;1961973;-72
2021/04/08 04:42:10;;;;;;;17.66;8.48;;;;;;;0.78;69.40;98806.33;352977;112;1962037;-72
2021/04/08 04:43:15;;;;;;;15.34;9.73;;;;;;;0.81;69.21;98789.22;353343;112;1961999;-72
2021/04/08 04:44:21;;;;;;;16.22;8.57;;;;;;;0.77;69.08;98796.70;353376;112;1962019;-72
2021/04/08 04:45:27;;;;;;;15.90;9.62;;;;;;;0.80;68.54;98793.70;319937;112;2639026;-72
2021/04/08 04:46:35;;;;;;;14.57;9.04;;;;;;;0.77;69.09;98786.07;353165;112;1961962;-71
2021/04/08 04:47:44;;;;;;;17.64;9.47;;;;;;;0.75;69.38;98790.71;310233;112;2833019;-71
2021/04/08 04:48:50;;;;;;;14.28;9.00;;;;;;;0.74;68.92;98785.55;314720;112;2744010;-71
2021/04/08 04:49:56;;;;;;;18.74;9.16;;;;;;;0.74;69.06;98793.52;337598;112;1962040;-71
2021/04/08 04:51:01;;;;;;;16.62;9.54;;;;;;;0.73;69.78;98797.19;353722;112;1962943;-72
2021/04/08 04:52:07;;;;;;;19.98;10.56;;;;;;;0.70;69.14;98798.34;352618;114;1962004;-71
2021/04/08 04:53:13;;;;;;;16.39;9.71;;;;;;;0.67;70.20;98795.20;353300;112;1962025;-71
2021/04/08 04:54:19;;;;;;;15.21;7.96;;;;;;;0.63;70.21;98798.16;334269;112;2318901;-71
2021/04/08 04:55:24;;;;;;;17.34;9.24;;;;;;;0.65;69.58;98798.83;355480;112;1962978;-71
2021/04/08 04:56:31;;;;;;;15.63;7.67;;;;;;;0.68;69.75;98786.22;353808;112;1961988;-71
2021/04/08 04:57:37;;;;;;;15.55;9.36;;;;;;;0.74;70.55;98802.35;332238;112;2401863;-71
2021/04/08 04:58:42;;;;;;;13.75;7.28;;;;;;;0.79;71.15;98794.69;343648;112;1961912;-71
2021/04/08 04:59:48;;;;;;;11.83;6.64;;;;;;;0.85;69.94;98802.02;352741;112;1963025;-71
2021/04/08 05:00:53;;;;;;;16.24;8.75;;;;;;;0.93;69.73;98808.32;352688;112;1962035;-71
2021/04/08 05:01:59;;;;;;;12.13;7.56;;;;;;;0.98;69.57;98811.31;353242;112;1962974;-71
2021/04/08 05:03:06;;;;;;;13.91;7.59;;;;;;;1.08;69.57;98822.63;335851;112;2390055;-71
2021/04/08 05:04:11;;;;;;;15.38;8.51;;;;;;;1.14;69.10;98829.11;353158;112;1961893;-71
2021/04/08 05:05:17;;;;;;;13.43;7.69;;;;;;;1.14;69.41;98815.81;353590;112;1961971;-71
2021/04/08 05:06:24;;;;;;;15.24;8.81;;;;;;;1.14;68.84;98819.33;307325;112;2870897;-71
2021/04/08 05:07:31;;;;;;;18.69;8.59;;;;;;;1.13;69.22;98828.28;353921;112;1962037;-71
2021/04/08 05:08:47;;;;;;;16.56;9.08;;;;;;;1.14;70.37;98824.64;331029;112;2425674;-72
2021/04/08 05:09:53;;;;;;;16.09;9.16;;;;;;;1.16;69.46;98822.63;354197;111;1962017;-71
2021/04/08 05:10:58;;;;;;;14.41;8.78;;;;;;;1.18;69.63;98827.80;348183;114;1963968;-71
2021/04/08 05:12:05;;;;;;;14.69;9.13;;;;;;;1.23;68.74;98828.13;352875;108;1960895;-71
2021/04/08 05:13:11;;;;;;;17.71;9.52;;;;;;;1.33;69.24;98823.47;324367;111;1963173;-71
2021/04/08 05:14:16;;;;;;;16.11;9.38;;;;;;;1.39;69.58;98817.47;357282;111;1960983;-71
2021/04/08 05:15:22;;;;;;;15.57;10.23;;;;;;;1.44;70.14;98824.95;356580;111;1961932;-71